Stunt Ranch Reserve, Santa Monica Mtns, California Weather observations

Data are for 10 minute period ending at time listed.
 Day   Time   Solar   Ave.   Ave.  Ave.  Vector  Max.   Baro.   Total    
  of    of     Rad.   Air    Rel.  Wind   Wind   Wind  Press.  Precip.   
Year   Day            Temp.  Hum.  Speed  Dir.   Gust                    
2014   (PST)  Kw/m2    F      %     mph   deg.    mph    mb.     in.     
-------------------------------------------------------------------------
 212   13:10   0.90   99.0    29    3.4   300     8.2   966.8    0.00 
 212   13:20   0.89   98.8    29    3.7   305     7.6   966.8    0.00 
 212   13:30   0.88   99.9    28    4.0   287     9.0   966.8    0.00 
 212   13:40   0.87  100.7    27    3.4   293     8.1   966.5    0.00 
 212   13:50   0.85  100.1    28    3.1   291     7.9   966.5    0.00 
 212   14:00   0.83  100.3    27    3.5   285     8.6   966.5    0.00 
 212   14:10   0.81  100.1    28    3.9   282     8.0   966.1    0.00 
 212   14:20   0.79  100.7    27    3.1   292     7.5   966.1    0.00 
 212   14:30   0.77  100.2    27    3.4   286     6.8   966.1    0.00 
 212   14:40   0.75  100.7    27    4.1   285    10.2   966.1    0.00 
 212   14:50   0.72   99.4    28    3.7   292     9.7   965.8    0.00 
 212   15:00   0.70   97.2    30    3.5   289     8.3   965.8    0.00 
 212   15:10   0.67   97.0    30    3.9   290     9.3   965.8    0.00 
 212   15:20   0.64   95.2    32    3.2   295     6.8   965.8    0.00 
 212   15:30   0.61   95.8    31    4.0   289     7.6   965.8    0.00 
 212   15:40   0.58   97.5    29    3.9   282     8.3   965.8    0.00 
 212   15:50   0.55   98.0    29    3.5   283     7.7   965.8    0.00 
 212   16:00   0.52   98.7    28    2.7   296     6.6   965.8    0.00 
 212   16:10   0.49   98.2    29    2.9   298     6.1   965.8    0.00 
 212   16:20   0.46   98.8    28    3.2   289     8.0   965.8    0.00 
 212   16:30   0.42  100.0    27    3.5   284     8.8   965.5    0.00 
 212   16:40   0.39   99.6    27    3.6   287     8.3   965.5    0.00 
 212   16:50   0.36   98.9    27    2.7   294     7.4   965.5    0.00 
 212   17:00   0.32   98.7    27    2.4   300     6.1   965.5    0.00 
 212   17:10   0.29   97.5    28    2.2   295     5.8   965.5    0.00 
 212   17:20   0.26   97.1    28    2.1   294     5.4   965.5    0.00 
 212   17:30   0.22   96.5    28    2.7   290     7.8   965.5    0.00 
 212   17:40   0.19   94.4    29    2.6   291     6.8   965.5    0.00 
 212   17:50   0.16   92.6    30    2.7   307     7.7   965.5    0.00 
 212   18:00   0.13   90.2    32    1.6   300     5.0   965.5    0.00 
 212   18:10   0.10   88.1    34    1.7   294     4.4   965.5    0.00 
 212   18:20   0.03   86.9    35    1.6   318     4.2   965.5    0.00 
 212   18:30   0.03   85.6    37    1.1   316     3.9   965.5    0.00 
 212   18:40   0.02   84.6    38    0.5   304     2.5   965.5    0.00 
 212   18:50   0.01   83.8    40    1.1   296     4.7   965.5    0.00 
 212   19:00   0.01   82.4    41    0.8   290     2.9   965.1    0.00 
 212   19:10   0.00   80.9    43    1.8   273     3.7   965.1    0.00 
 212   19:20   0.00   79.5    45    1.6   250     2.6   965.1    0.00 
 212   19:30   0.00   78.8    46    1.5   241     2.4   965.1    0.00 
 212   19:40   0.00   78.0    47    1.1   245     2.5   965.1    0.00 
 212   19:50   0.00   77.5    47    1.3   230     2.1   965.5    0.00 
 212   20:00   0.00   77.3    47    1.6   260     2.6   965.5    0.00 
 212   20:10   0.00   77.0    48    2.0   243     3.1   965.5    0.00 
 212   20:20   0.00   76.3    49    1.7   248     2.8   965.5    0.00 
 212   20:30   0.00   76.2    49    0.6   236     1.9   965.8    0.00 
 212   20:40   0.00   75.8    50    0.9   309     2.8   965.8    0.00 
 212   20:50   0.00   74.9    51    1.7   254     3.0   965.8    0.00 
 212   21:00   0.00   74.6    51    1.2   238     2.9   966.1    0.00 
 212   21:10   0.00   74.3    52    0.7   250     1.6   966.1    0.00 
 212   21:20   0.00   74.2    52    0.6   142     2.5   966.5    0.00 
 212   21:30   0.00   74.0    52    1.7   129     3.4   966.5    0.00 
 212   21:40   0.00   74.4    52    0.5   347     1.6   966.5    0.00 
 212   21:50   0.00   74.2    52    0.4   267     1.7   966.5    0.00 
 212   22:00   0.00   73.8    53    1.4   285     2.2   966.5    0.00 
 212   22:10   0.00   73.5    53    0.7   262     1.5   966.5    0.00 
 212   22:20   0.00   73.2    54    0.8   296     1.9   966.5    0.00 
 212   22:30   0.00   72.8    54    0.4   148     1.2   966.5    0.00 
 212   22:40   0.00   72.7    54    0.9    49     2.1   966.5    0.00 
 212   22:50   0.00   72.6    54    1.2   249     1.8   966.5    0.00 
 212   23:00   0.00   72.1    55    2.4   260     3.3   966.5    0.00 
 212   23:10   0.00   70.9    57    3.5   271     5.7   966.5    0.00 
 212   23:20   0.00   69.8    60    1.4   260     3.1   966.8    0.00 
 212   23:30   0.00   68.8    64    3.5   268     6.2   966.5    0.00 
 212   23:40   0.00   67.7    67    2.5   253     5.2   966.8    0.00 
 212   23:50   0.00   67.0    70    2.2   236     4.7   966.8    0.00 
 213    0:00   0.00   66.7    67    1.6   158     3.1   966.8    0.00 
 213    0:10   0.00   66.1    73    3.1   264     4.8   966.8    0.00 
 213    0:20   0.00   65.5    75    1.1   247     3.0   966.8    0.00 
 213    0:30   0.00   65.2    77    2.0   272     4.2   966.8    0.00 
 213    0:40   0.00   64.5    79    4.1   244     5.9   966.8    0.00 
 213    0:50   0.00   64.6    79    2.4   258     3.9   966.8    0.00 
 213    1:00   0.00   64.3    79    1.1   141     2.9   966.8    0.00 
 213    1:10   0.00   64.4    77    1.5   131     2.3   966.8    0.00 
 213    1:20   0.00   64.9    76    0.7   167     2.0   966.8    0.00 
 213    1:30   0.00   65.4    73    1.7   138     3.3   966.8    0.00 
 213    1:40   0.00   65.5    72    0.3   142     1.5   966.8    0.00 
 213    1:50   0.00   65.5    73    0.1   252     0.8   966.8    0.00 
 213    2:00   0.00   65.5    74    0.3    43     1.1   966.8    0.00 
 213    2:10   0.00   65.2    74    0.6   344     2.2   966.8    0.00 
 213    2:20   0.00   65.2    75    0.6   205     1.9   966.8    0.00 
 213    2:30   0.00   65.0    74    0.4   302     1.3   966.8    0.00 
 213    2:40   0.00   64.5    76    0.2   346     1.2   966.8    0.00 
 213    2:50   0.00   64.4    76    1.3   179     2.6   966.8    0.00 
 213    3:00   0.00   64.6    76    1.0   227     2.3   966.8    0.00 
 213    3:10   0.00   64.5    75    1.0   136     2.5   966.5    0.00 
 213    3:20   0.00   64.4    76    0.6   186     1.8   966.8    0.00 
 213    3:30   0.00   64.4    77    0.7   241     2.0   966.8    0.00 
 213    3:40   0.00   64.2    78    0.3   353     1.7   966.8    0.00 
 213    3:50   0.00   64.0    79    1.0   238     3.2   966.8    0.00 
 213    4:00   0.00   63.6    79    1.4   219     3.4   966.8    0.00 
 213    4:10   0.00   63.4    80    1.7   255     3.1   966.8    0.00 
 213    4:20   0.00   63.3    80    0.4   258     1.9   966.8    0.00 
 213    4:30   0.00   62.9    81    1.5   223     2.3   966.8    0.00 
 213    4:40   0.00   62.9    81    0.6   283     1.8   966.8    0.00 
 213    4:50   0.00   62.8    82    1.5   152     2.6   966.8    0.00 
 213    5:00   0.00   62.9    81    1.1   260     2.2   966.8    0.00 
 213    5:10   0.00   62.7    82    1.1   268     2.0   966.8    0.00 
 213    5:20   0.01   62.4    82    1.4   142     2.3   966.8    0.00 
 213    5:30   0.01   62.9    82    1.3   152     2.5   966.8    0.00 
 213    5:40   0.02   63.9    79    0.7   224     2.0   966.8    0.00 
 213    5:50   0.03   64.1    79    2.0   272     3.0   966.8    0.00 
 213    6:00   0.03   63.7    78    1.3   153     3.1   966.8    0.00 
 213    6:10   0.11   64.3    77    0.4   162     1.2   966.8    0.00 
 213    6:20   0.14   68.0    68    0.3   329     1.2   966.8    0.00 
 213    6:30   0.17   69.6    66    1.1   290     2.3   966.8    0.00 
 213    6:40   0.20   69.8    66    1.3   310     3.2   967.2    0.00 
 213    6:50   0.24   70.1    65    0.6   309     1.9   967.2    0.00 
 213    7:00   0.27   71.3    63    0.4   359     2.7   967.2    0.00 
 213    7:10   0.30   73.2    60    1.1   303     2.3   967.2    0.00 
 213    7:20   0.34   74.0    59    1.6   295     3.7   967.2    0.00 
 213    7:30   0.37   74.6    58    2.4   288     4.5   967.2    0.00 
 213    7:40   0.41   75.7    56    3.0   290     6.3   967.2    0.00 
 213    7:50   0.44   75.5    57    3.7   275     5.7   967.2    0.00 
 213    8:00   0.47   76.0    57    3.6   274     6.4   966.8    0.00 
 213    8:10   0.51   76.8    56    3.1   280     6.1   966.8    0.00 
 213    8:20   0.54   76.9    57    4.0   283     8.2   966.8    0.00 
 213    8:30   0.57   77.8    56    3.5   273     6.9   966.8    0.00 
 213    8:40   0.60   79.1    53    3.7   290     7.0   966.8    0.00 
 213    8:50   0.63   80.4    51    4.6   282     8.1   966.8    0.00 
 213    9:00   0.66   83.1    46    4.0   339    10.7   967.2    0.00 
 213    9:10   0.69   85.2    44    3.9   321     8.3   967.2    0.00 
 213    9:20   0.71   84.4    42    4.5    72    10.4   967.2    0.00 
 213    9:30   0.74   84.6    42    6.8    83    14.2   967.2    0.00 
 213    9:40   0.76   87.0    40    4.0    32     8.8   967.2    0.00 
 213    9:50   0.79   90.6    36    4.8   351    11.2   967.2    0.00 
 213   10:00   0.81   92.0    35    4.8   335     8.8   967.5    0.00 
 213   10:10   0.83   91.9    36    3.6   314     9.8   967.5    0.00 
 213   10:20   0.85   91.7    36    4.3   319     9.7   967.5    0.00 
 213   10:30   0.86   92.7    35    3.5   290     8.3   967.5    0.00 
 213   10:40   0.88   94.9    33    2.6   271     8.6   967.5    0.00 
 213   10:50   0.89   94.9    34    3.9   283     7.7   967.5    0.00 
 213   11:00   0.90   94.2    34    4.1   290     8.8   967.5    0.00 
 213   11:10   0.92   93.6    35    5.1   282     9.6   967.5    0.00 
 213   11:20   0.92   93.6    35    5.2   280     9.4   967.5    0.00 
 213   11:30   0.93   93.2    36    3.8   277     8.7   967.2    0.00 
 213   11:40   0.93   94.1    35    4.7   290     9.3   967.2    0.00 
 213   11:50   0.94   93.9    36    5.2   286     8.5   967.2    0.00 
 213   12:00   0.94   93.1    37    4.0   280     7.8   967.2    0.00 
 213   12:10   0.94   93.6    36    4.5   280     8.6   966.8    0.00 
 213   12:20   0.94   93.5    36    4.1   285     8.1   966.8    0.00 
 213   12:30   0.94   94.6    35    4.2   307     7.5   966.8    0.00 
 213   12:40   0.93   95.1    35    3.3   316     6.7   966.8    0.00 
 213   12:50   0.93   95.9    34    3.6   307     7.9   966.8    0.00 
 213   13:00   0.88   95.6    34    3.8   314     8.3   966.8    0.00 

Return to Stunt Ranch Reserve graphs page.


Western Regional Climate Center,wrcc@dri.edu